Data for 05/06/2017

Time Sea-Level Adjusted Pressure Absolute Pressure Temperature Relative Humidity Dew Point   
(mb) (inHg) (mb) (inHg) (C) (F) (%) (C) (F)
00:05 1011 29.85 841 24.83 16.4 61.5 33 0.1 32.2
00:10 1011 29.85 841 24.83 16.2 61.1 34 0.4 32.8
00:15 1011 29.85 841 24.83 15.9 60.6 36 0.9 33.6
00:20 1011 29.85 841 24.83 15.6 60 36 0.8 33.5
00:25 1011 29.85 841 24.83 15.5 59.9 35 0.2 32.3
00:30 1011 29.85 841 24.83 16.1 61 32 -0.3 31.4
00:35 1011 29.85 841 24.83 16.3 61.3 33 0.2 32.3
00:40 1011 29.85 841 24.83 15.9 60.6 34 0 32
00:45 1011 29.85 841 24.83 15.7 60.3 35 0.4 32.8
00:50 1011 29.85 841 24.83 15.4 59.6 37 0.8 33.5
00:55 1011 29.85 841 24.83 15.3 59.5 36 0.5 32.9
01:00 1011 29.85 841 24.83 15.3 59.5 36 0.5 32.8
01:05 1011 29.85 841 24.83 15.3 59.5 36 0.5 32.9
01:10 1011 29.85 841 24.83 15.3 59.6 36 0.4 32.8
01:15 1011 29.85 841 24.83 15.2 59.4 36 0.4 32.8
01:20 1011 29.85 841 24.83 15.2 59.3 35 0 32
01:25 1012 29.88 841 24.83 15.7 60.2 35 0.4 32.8
01:30 1012 29.88 841 24.83 14.9 58.8 40 1.5 34.7
01:35 1012 29.88 841 24.83 14.6 58.3 38 0.7 33.2
01:40 1012 29.88 841 24.83 14.5 58.2 40 1.1 34.1
01:45 1012 29.88 841 24.83 14.2 57.5 41 1.2 34.1
01:50 1011 29.85 841 24.83 14 57.2 43 1.8 35.2
01:55 1011 29.85 841 24.83 13.9 56.9 42 1.3 34.3
02:00 1011 29.85 841 24.83 13.7 56.7 44 1.9 35.4
02:05 1011 29.85 841 24.83 13.6 56.4 44 1.5 34.7
02:10 1011 29.85 841 24.83 13.5 56.4 43 1.3 34.4
02:15 1011 29.85 841 24.83 13.7 56.6 43 1.3 34.4
02:20 1011 29.85 841 24.83 13.6 56.5 42 1 33.9
02:25 1012 29.88 841 24.83 13.7 56.7 42 1.2 34.1
02:30 1012 29.88 841 24.83 13.7 56.6 41 0.9 33.6
02:35 1012 29.88 841 24.83 14 57.3 41 1 33.8
02:40 1012 29.88 841 24.83 14.2 57.5 40 0.7 33.2
02:45 1012 29.88 841 24.83 14.2 57.5 40 0.9 33.5
02:50 1012 29.88 841 24.83 14 57.1 41 1.1 33.9
02:55 1012 29.88 841 24.83 13.7 56.6 42 1.1 34
03:00 1012 29.88 841 24.83 13.4 56.1 43 1.3 34.3
03:05 1012 29.88 841 24.83 13.2 55.8 44 1.3 34.3
03:10 1012 29.88 841 24.83 13.2 55.7 43 1 33.8
03:15 1012 29.88 841 24.83 13.5 56.4 42 0.8 33.4
03:20 1012 29.88 841 24.83 13.7 56.7 42 1 33.8
03:25 1012 29.88 841 24.83 13.5 56.4 43 1.4 34.5
03:30 1012 29.88 841 24.83 13.5 56.3 44 1.5 34.6
03:35 1012 29.88 841 24.83 13.5 56.3 43 1.4 34.5
03:40 1012 29.88 842 24.86 13.3 56 47 2.2 35.9
03:45 1012 29.88 842 24.86 12.5 54.5 47 1.7 35
03:50 1012 29.88 842 24.86 12.3 54.1 49 2 35.6
03:55 1012 29.88 842 24.86 11.9 53.4 50 1.9 35.5
04:00 1012 29.88 841 24.83 11.8 53.2 49 1.6 34.9
04:05 1012 29.88 842 24.86 12.1 53.9 49 1.7 35.1
04:10 1012 29.88 842 24.86 12.2 54 48 1.6 34.9
04:15 1012 29.88 842 24.86 12.3 54.1 48 1.6 34.9
04:20 1012 29.88 842 24.86 12.3 54.2 48 1.6 34.8
04:25 1012 29.88 842 24.86 12.5 54.4 48 1.7 35.1
04:30 1012 29.88 842 24.86 12.4 54.2 49 2 35.5
04:35 1012 29.88 842 24.86 12.3 54.2 49 1.9 35.4
04:40 1012 29.88 842 24.86 11.9 53.5 51 2.2 35.9
04:45 1012 29.88 842 24.86 11.3 52.4 53 2.1 35.8
04:50 1012 29.88 841 24.83 11 51.8 54 2 35.6
04:55 1012 29.88 842 24.86 10.8 51.4 55 2.1 35.7
05:00 1013 29.91 842 24.86 10.6 51.1 55 2 35.6
05:05 1013 29.91 842 24.86 10.7 51.2 54 1.8 35.3
05:10 1013 29.91 842 24.86 10.6 51.1 55 2.1 35.8
05:15 1012 29.88 842 24.86 10.3 50.5 57 2.2 35.9
05:20 1012 29.88 842 24.86 10 50 58 2.1 35.8
05:25 1012 29.88 842 24.86 9.9 49.8 58 2.1 35.8
05:30 1013 29.91 842 24.86 10.1 50.1 57 2.1 35.8
05:35 1013 29.91 842 24.86 10.3 50.5 56 2 35.6
05:40 1013 29.91 842 24.86 10.6 51.1 56 2.1 35.9
05:45 1012 29.88 842 24.86 10.7 51.2 55 2.1 35.8
05:50 1012 29.88 842 24.86 10.4 50.7 57 2.2 35.9
05:55 1012 29.88 842 24.86 10.2 50.3 58 2.3 36.1
06:00 1012 29.88 842 24.86 10.1 50.2 58 2.2 35.9
06:05 1013 29.91 842 24.86 10.5 50.8 57 2.2 36
06:10 1013 29.91 842 24.86 11.1 51.9 55 2.3 36.2
06:15 1013 29.91 842 24.86 11.2 52.1 55 2.5 36.6
06:20 1013 29.91 842 24.86 11.4 52.5 55 2.6 36.7
06:25 1013 29.91 842 24.86 11.7 53 54 2.7 36.9
06:30 1013 29.91 842 24.86 11.8 53.2 54 2.9 37.2
06:35 1013 29.91 842 24.86 11.6 52.9 54 2.6 36.7
06:40 1013 29.91 842 24.86 11.7 53 54 2.7 36.9
06:45 1013 29.91 842 24.86 11.4 52.6 55 2.9 37.1
06:50 1013 29.91 842 24.86 11.2 52.1 57 2.9 37.2
06:55 1013 29.91 842 24.86 11.2 52.1 56 2.8 37.1
07:00 1013 29.91 842 24.86 11.4 52.4 56 3 37.4
07:05 1013 29.91 842 24.86 11.6 52.8 56 3 37.4
07:10 1013 29.91 842 24.86 12.1 53.8 53 2.9 37.2
07:15 1013 29.91 842 24.86 12.4 54.4 52 3 37.5
07:20 1013 29.91 842 24.86 12.3 54.2 53 3.1 37.6
07:25 1013 29.91 842 24.86 12.3 54.1 55 3.4 38.2
07:30 1013 29.91 842 24.86 12.1 53.8 55 3.4 38.1
07:35 1013 29.91 842 24.86 12.2 54 53 3 37.4
07:40 1013 29.91 842 24.86 12.5 54.4 53 3.1 37.6
07:45 1013 29.91 842 24.86 12.8 55 51 3.1 37.6
07:50 1013 29.91 842 24.86 13.2 55.8 50 3.1 37.6
07:55 1013 29.91 842 24.86 13.7 56.6 49 3.1 37.6
08:00 1013 29.91 842 24.86 14.3 57.7 48 3.5 38.4
08:05 1013 29.91 842 24.86 14.2 57.6 49 3.6 38.6
08:10 1013 29.91 842 24.86 14.2 57.6 49 3.8 38.8
08:15 1013 29.91 842 24.86 14.7 58.4 47 3.5 38.3
08:20 1013 29.91 842 24.86 15.5 59.9 45 3.7 38.7
08:25 1013 29.91 842 24.86 16.1 60.9 42 3.3 38
08:30 1013 29.91 842 24.86 16.7 62 41 3.6 38.4
08:35 1013 29.91 842 24.86 16.7 62.1 41 3.7 38.6
08:40 1013 29.91 842 24.86 16.8 62.3 42 3.8 38.9
08:45 1013 29.91 842 24.86 16.5 61.7 44 4.2 39.6
08:50 1013 29.91 842 24.86 16.7 62 43 4 39.2
08:55 1013 29.91 842 24.86 16.9 62.3 43 4.2 39.6
09:00 1013 29.91 842 24.86 16.9 62.4 43 4.4 40
09:05 1013 29.91 842 24.86 16.6 61.8 44 4.3 39.7
09:10 1013 29.91 842 24.86 16.6 62 43 4.3 39.7
09:15 1013 29.91 842 24.86 16.9 62.4 43 4.5 40
09:20 1013 29.91 842 24.86 17.5 63.4 41 4.2 39.5
09:25 1013 29.91 842 24.86 18.2 64.8 40 4.4 40
09:30 1012 29.88 842 24.86 18.3 65 39 4.4 39.9
09:35 1012 29.88 842 24.86 18.9 66.1 38 4.4 39.9
09:40 1012 29.88 841 24.83 19.1 66.5 38 4.6 40.3
09:45 1012 29.88 841 24.83 19.4 66.9 36 4.2 39.5
09:50 1012 29.88 841 24.83 19.2 66.6 36 4 39.3
09:55 1012 29.88 841 24.83 19.5 67 36 4.2 39.6
10:00 1012 29.88 841 24.83 18.4 65.2 38 4.1 39.4
10:05 1012 29.88 841 24.83 18.8 65.8 37 3.8 38.8
10:10 1012 29.88 841 24.83 19.5 67 36 4 39.2
10:15 1012 29.88 841 24.83 20.1 68.1 34 3.8 38.8
10:20 1012 29.88 841 24.83 19.9 67.8 36 4.7 40.4
10:25 1012 29.88 841 24.83 19.2 66.5 36 3.7 38.7
10:30 1012 29.88 841 24.83 19.8 67.6 35 4.1 39.4
10:35 1012 29.88 841 24.83 20 68.1 35 4.3 39.7
10:40 1012 29.88 841 24.83 20 68 35 4.2 39.5
10:45 1012 29.88 841 24.83 19.8 67.7 37 4.7 40.5
10:50 1012 29.88 841 24.83 19.2 66.5 38 4.6 40.2
10:55 1012 29.88 841 24.83 19.1 66.5 37 4.3 39.8
11:00 1012 29.88 841 24.83 19.9 67.8 35 4.2 39.6
11:05 1012 29.88 841 24.83 20.7 69.2 34 4.4 40
11:10 1012 29.88 841 24.83 20.3 68.5 33 3.8 38.8
11:15 1012 29.88 841 24.83 19.7 67.5 37 4.7 40.4
11:20 1012 29.88 841 24.83 19.9 67.9 37 4.9 40.8
11:25 1012 29.88 841 24.83 20.2 68.3 35 4.5 40
11:30 1012 29.88 841 24.83 20.3 68.6 36 4.8 40.6
11:35 1012 29.88 841 24.83 20.8 69.4 36 5.4 41.6
11:40 1012 29.88 841 24.83 20.6 69.1 37 5.6 42
11:45 1012 29.88 841 24.83 20.6 69.1 37 5.6 42.1
11:50 1012 29.88 841 24.83 21 69.9 35 5 41
11:55 1012 29.88 841 24.83 20.5 69 35 4.9 40.8
12:00 1012 29.88 841 24.83 20.4 68.7 35 4.7 40.5
12:05 1011 29.85 841 24.83 20.8 69.5 37 5.8 42.5
12:10 1011 29.85 841 24.83 20 68.1 37 5.1 41.2
12:15 1011 29.85 841 24.83 20.3 68.5 37 5.1 41.1
12:20 1011 29.85 841 24.83 20.9 69.5 35 4.9 40.9
12:25 1011 29.85 840 24.81 21.4 70.4 34 4.9 40.8
12:30 1011 29.85 840 24.81 21.3 70.3 34 4.8 40.7
12:35 1011 29.85 840 24.81 21.5 70.7 33 4.9 40.8
12:40 1011 29.85 840 24.81 21.7 71.1 32 4.7 40.5
12:45 1011 29.85 840 24.81 21.9 71.4 32 4.6 40.3
12:50 1011 29.85 840 24.81 22.1 71.8 32 4.9 40.8
12:55 1011 29.85 840 24.81 21.6 70.8 33 4.8 40.6
13:00 1011 29.85 840 24.81 21.7 71.1 32 4.6 40.4
13:05 1011 29.85 840 24.81 21.8 71.3 33 4.8 40.7
13:10 1011 29.85 840 24.81 22.2 72 32 4.8 40.6
13:15 1011 29.85 840 24.81 22.1 71.9 32 4.9 40.9
13:20 1011 29.85 840 24.81 22.3 72.2 34 5.8 42.5
13:25 1011 29.85 840 24.81 22.5 72.5 32 5.2 41.4
13:30 1011 29.85 840 24.81 22.7 72.8 31 4.9 40.9
13:35 1010 29.83 840 24.81 22.9 73.1 30 4.8 40.6
13:40 1010 29.83 840 24.81 22.8 73 32 5.5 41.9
13:45 1010 29.83 840 24.81 23 73.4 32 5.6 42.1
13:50 1010 29.83 839 24.78 22.7 72.8 33 5.6 42.2
13:55 1010 29.83 839 24.78 22.4 72.4 33 5.7 42.2
14:00 1010 29.83 839 24.78 22.3 72.1 32 4.9 40.8
14:05 1010 29.83 839 24.78 22.7 72.9 31 5.1 41.3
14:10 1010 29.83 839 24.78 23.3 74 32 5.7 42.3
14:15 1010 29.83 839 24.78 22.4 72.3 31 4.8 40.6
14:20 1010 29.83 839 24.78 22.6 72.6 32 5.4 41.7
14:25 1010 29.83 839 24.78 23 73.4 31 5.3 41.5
14:30 1010 29.83 839 24.78 23.7 74.6 29 5 41.1
14:35 1010 29.83 839 24.78 23.9 75 30 5.6 42.1
14:40 1010 29.83 839 24.78 24.1 75.4 31 6.2 43.2
14:45 1010 29.83 839 24.78 24.9 76.8 28 5.3 41.5
14:50 1010 29.83 839 24.78 25.2 77.3 28 5.6 42.1
14:55 1010 29.83 839 24.78 24.2 75.5 29 5.4 41.7
15:00 1009 29.8 839 24.78 24.8 76.7 30 6.1 43
15:05 1010 29.83 839 24.78 23.8 74.8 30 5.6 42.1
15:10 1010 29.83 839 24.78 24 75.1 31 6.2 43.2
15:15 1010 29.83 839 24.78 23.6 74.5 33 6.5 43.6
15:20 1010 29.83 840 24.81 22.3 72.1 35 6.1 43
15:25 1011 29.85 840 24.81 22.3 72.1 36 6.8 44.3
15:30 1010 29.83 839 24.78 22 71.6 32 4.8 40.6
15:35 1010 29.83 839 24.78 22.6 72.7 25 1.7 35
15:40 1010 29.83 839 24.78 23.9 75 24 2.2 36
15:45 1010 29.83 839 24.78 25.3 77.5 24 3.5 38.3
15:50 1010 29.83 839 24.78 25.7 78.2 25 4.7 40.4
15:55 1010 29.83 839 24.78 25.8 78.5 26 5.3 41.5
16:00 1009 29.8 839 24.78 24.9 76.9 28 5.6 42.1
16:05 1009 29.8 839 24.78 24.9 76.9 30 6.2 43.2
16:10 1009 29.8 839 24.78 24.4 75.9 30 6.2 43.1
16:15 1009 29.8 839 24.78 24.4 75.9 28 5.1 41.3
16:20 1009 29.8 838 24.75 24.7 76.5 28 5.5 41.9
16:25 1009 29.8 838 24.75 24.2 75.6 31 6.1 42.9
16:30 1009 29.8 838 24.75 24.4 75.9 28 4.8 40.6
16:35 1009 29.8 838 24.75 24.9 76.9 27 4.8 40.6
16:40 1009 29.8 838 24.75 25 77.1 25 3.6 38.5
16:45 1009 29.8 838 24.75 25.4 77.7 23 3.3 37.9
16:50 1009 29.8 838 24.75 26.2 79.2 23 4 39.1
16:55 1009 29.8 838 24.75 26.2 79.2 23 3.9 39
17:00 1009 29.8 838 24.75 25.3 77.5 24 3.7 38.6
17:05 1009 29.8 838 24.75 25.8 78.5 22 2.5 36.6
17:10 1009 29.8 838 24.75 26.1 78.9 20 1.5 34.8
17:15 1009 29.8 838 24.75 25.3 77.5 16 -2.4 27.8
17:20 1009 29.8 838 24.75 25.4 77.7 17 -1.4 29.5
17:25 1009 29.8 838 24.75 25.8 78.5 17 -0.5 31.1
17:30 1009 29.8 838 24.75 25.8 78.4 18 -0.3 31.5
17:35 1009 29.8 838 24.75 26.9 80.4 15 -1.4 29.5
17:40 1009 29.8 838 24.75 26.6 79.9 18 0.3 32.6
17:45 1009 29.8 838 24.75 25.7 78.3 17 -1.2 29.8
17:50 1009 29.8 838 24.75 25 77 19 -0 32
17:55 1009 29.8 838 24.75 24.9 76.7 19 -0.1 31.8
18:00 1009 29.8 838 24.75 25.1 77.1 20 0.6 33.1
18:05 1009 29.8 838 24.75 24.6 76.2 19 -0.3 31.4
18:10 1009 29.8 838 24.75 24.4 75.8 18 -1 30.2
18:15 1009 29.8 838 24.75 24.1 75.4 18 -1.7 28.9
18:20 1009 29.8 838 24.75 23.9 75.1 20 0.1 32.2
18:25 1009 29.8 838 24.75 23.2 73.8 21 -0.2 31.7
18:30 1009 29.8 838 24.75 22.6 72.7 21 -0.5 31.1
18:35 1009 29.8 838 24.75 22.2 72 19 -2.4 27.6
18:40 1009 29.8 838 24.75 22.5 72.6 20 -1 30.1
18:45 1009 29.8 838 24.75 22 71.7 22 -0.2 31.7
18:50 1009 29.8 838 24.75 21.7 71 23 -0 32
18:55 1009 29.8 838 24.75 21.7 71 24 0.3 32.6
19:00 1009 29.8 838 24.75 21.4 70.6 24 0.4 32.8
19:05 1009 29.8 838 24.75 21.3 70.3 24 0.1 32.2
19:10 1009 29.8 839 24.78 21.1 70 24 -0 32
19:15 1009 29.8 839 24.78 21.1 69.9 24 -0 31.9
19:20 1009 29.8 839 24.78 21 69.8 24 -0.2 31.7
19:25 1009 29.8 839 24.78 21 69.8 24 -0.2 31.7
19:30 1009 29.8 839 24.78 21.1 70 23 -0.4 31.4
19:35 1009 29.8 839 24.78 21 69.8 24 -0.2 31.7
19:40 1009 29.8 838 24.75 21 69.8 24 -0.3 31.4
19:45 1009 29.8 838 24.75 20.9 69.7 23 -0.6 31
19:50 1009 29.8 838 24.75 21 69.7 23 -1 30.1
19:55 1009 29.8 838 24.75 21.1 69.9 23 -0.9 30.4
20:00 1009 29.8 838 24.75 21 69.7 24 -0.4 31.2
20:05 1009 29.8 838 24.75 20.7 69.3 24 -0.4 31.3
20:10 1009 29.8 838 24.75 20.6 69.1 23 -1 30.2
20:15 1009 29.8 838 24.75 20.7 69.3 22 -1.9 28.6
20:20 1009 29.8 838 24.75 21.2 70.1 21 -1.8 28.8
20:25 1009 29.8 838 24.75 21.3 70.3 22 -0.9 30.4
20:30 1009 29.8 838 24.75 21.2 70.1 21 -2 28.5
20:35 1009 29.8 838 24.75 21.3 70.4 21 -1.4 29.5
20:40 1009 29.8 838 24.75 21.2 70.2 22 -1 30.2
20:45 1009 29.8 838 24.75 21 69.8 22 -1.3 29.6
20:50 1009 29.8 838 24.75 21.1 69.9 21 -1.9 28.6
20:55 1009 29.8 838 24.75 21.2 70.2 21 -1.6 29.1
21:00 1009 29.8 838 24.75 21.1 70 22 -1 30.2
21:05 1009 29.8 838 24.75 20.8 69.5 23 -0.9 30.3
21:10 1009 29.8 838 24.75 20.5 69 24 -0.4 31.2
21:15 1009 29.8 838 24.75 20.3 68.6 25 -0.2 31.6
21:20 1009 29.8 838 24.75 20 68.1 26 -0 32
21:25 1009 29.8 838 24.75 19.9 67.8 26 -0.2 31.6
21:30 1009 29.8 838 24.75 20 68 25 -0.3 31.4
21:35 1009 29.8 838 24.75 20 67.9 25 -0.2 31.6
21:40 1009 29.8 839 24.78 19.6 67.3 27 0.1 32.2
21:45 1009 29.8 839 24.78 19.6 67.2 28 0.6 33.1
21:50 1010 29.83 839 24.78 19.4 67 28 0.5 32.8
21:55 1010 29.83 839 24.78 19.3 66.8 28 0.5 32.9
22:00 1010 29.83 839 24.78 19.3 66.7 28 0.6 33
22:05 1010 29.83 839 24.78 19.1 66.4 30 1.5 34.7
22:10 1010 29.83 839 24.78 18.5 65.3 35 2.9 37.2
22:15 1010 29.83 839 24.78 17.9 64.3 37 3.1 37.5
22:20 1010 29.83 839 24.78 17.6 63.6 40 4.1 39.4
22:25 1010 29.83 839 24.78 17.2 62.9 44 5 41
22:30 1010 29.83 839 24.78 16.8 62.2 46 5.3 41.6
22:35 1010 29.83 840 24.81 16.5 61.8 47 5.4 41.8
22:40 1010 29.83 840 24.81 16.3 61.4 50 5.9 42.6
22:45 1010 29.83 840 24.81 15.8 60.5 52 6 42.7
22:50 1010 29.83 840 24.81 15.4 59.8 53 6 42.8
22:55 1011 29.85 840 24.81 15.2 59.3 54 5.9 42.7
23:00 1011 29.85 840 24.81 15.1 59.1 53 5.7 42.3
23:05 1011 29.85 840 24.81 15.2 59.3 53 5.7 42.2
23:10 1011 29.85 840 24.81 15.2 59.4 54 5.9 42.7
23:15 1011 29.85 840 24.81 15.2 59.3 52 5.6 42
23:20 1011 29.85 840 24.81 15.1 59.3 53 5.6 42.1
23:25 1011 29.85 840 24.81 15.1 59.2 53 5.6 42.2
23:30 1011 29.85 840 24.81 15.1 59.2 54 5.8 42.5
23:35 1011 29.85 840 24.81 15 59 54 5.7 42.3
23:40 1011 29.85 840 24.81 14.9 58.8 54 5.8 42.4
23:45 1011 29.85 840 24.81 14.7 58.5 54 5.7 42.3
23:50 1011 29.85 841 24.83 14.5 58.1 55 5.7 42.2
23:55 1011 29.85 841 24.83 14.3 57.7 56 5.6 42.1
24:00 1011 29.85 840 24.81 14.2 57.5 56 5.5 42